createdAt,value
2023-02-27T00:00:42.296Z,2.83
2023-02-27T00:03:09.477Z,3.10
2023-02-27T00:05:36.581Z,2.05
2023-02-27T00:08:03.709Z,2.60
2023-02-27T00:10:30.912Z,2.40
2023-02-27T00:12:58.115Z,2.25
2023-02-27T00:15:25.090Z,2.67
2023-02-27T00:17:52.359Z,2.80
2023-02-27T00:20:20.108Z,3.10
2023-02-27T00:22:47.553Z,2.67
2023-02-27T00:25:15.469Z,2.80
2023-02-27T00:27:42.829Z,2.40
2023-02-27T00:30:13.631Z,1.95
2023-02-27T00:32:40.826Z,2.10
2023-02-27T00:35:10.027Z,2.35
2023-02-27T00:37:37.875Z,2.45
2023-02-27T00:40:06.204Z,2.60
2023-02-27T00:42:33.866Z,5.25
2023-02-27T00:45:02.436Z,2.55
2023-02-27T00:47:31.646Z,2.90
2023-02-27T00:49:58.996Z,3.58
2023-02-27T00:52:29.706Z,3.10
2023-02-27T00:54:56.904Z,1.85
2023-02-27T00:57:24.096Z,2.65
2023-02-27T00:59:51.229Z,2.45
2023-02-27T01:02:18.725Z,3.88
2023-02-27T01:04:45.866Z,2.20
2023-02-27T01:07:12.908Z,3.70
2023-02-27T01:09:40.112Z,2.80
2023-02-27T01:12:07.975Z,2.03
2023-02-27T01:14:35.076Z,3.17
2023-02-27T01:17:02.591Z,2.58
2023-02-27T01:19:29.797Z,2.03
2023-02-27T01:21:56.995Z,1.95
2023-02-27T01:24:24.280Z,3.00
2023-02-27T01:26:53.079Z,3.38
2023-02-27T01:29:20.201Z,1.83
2023-02-27T01:31:49.033Z,2.38
2023-02-27T01:34:16.512Z,2.28
2023-02-27T01:36:43.800Z,1.67
2023-02-27T01:39:11.012Z,1.80
2023-02-27T01:41:40.513Z,1.63
2023-02-27T01:44:13.231Z,2.08
2023-02-27T01:46:41.316Z,1.45
2023-02-27T01:49:24.363Z,1.48
2023-02-27T01:52:02.108Z,3.05
2023-02-27T01:54:32.595Z,2.35
2023-02-27T01:57:06.834Z,3.47
2023-02-27T01:59:41.554Z,1.30
2023-02-27T02:02:15.767Z,1.40
2023-02-27T02:04:43.875Z,1.75
2023-02-27T02:07:15.791Z,4.20
2023-02-27T02:09:48.741Z,2.25
2023-02-27T02:12:18.189Z,2.10
2023-02-27T02:14:45.238Z,2.07
2023-02-27T02:17:18.682Z,2.55
2023-02-27T02:19:51.631Z,1.50
2023-02-27T02:22:30.514Z,2.78
2023-02-27T02:25:37.155Z,1.90
2023-02-27T02:28:28.994Z,2.72
2023-02-27T02:31:20.622Z,2.57
2023-02-27T02:33:59.797Z,3.10
2023-02-27T02:36:45.309Z,4.18
2023-02-27T02:39:30.509Z,3.20
2023-02-27T02:42:03.395Z,3.40
2023-02-27T02:44:56.431Z,2.30
2023-02-27T02:47:36.282Z,2.72
2023-02-27T02:50:16.679Z,3.03
2023-02-27T02:53:12.190Z,2.87
2023-02-27T02:56:04.777Z,3.63
2023-02-27T02:58:44.752Z,3.70
2023-02-27T03:01:59.813Z,2.77
2023-02-27T03:04:36.778Z,3.47
2023-02-27T03:07:11.937Z,2.77
2023-02-27T03:09:53.230Z,2.08
2023-02-27T03:12:23.960Z,2.65
2023-02-27T03:14:58.849Z,3.00
2023-02-27T03:17:50.919Z,3.43
2023-02-27T03:20:24.353Z,9.30
2023-02-27T03:22:56.193Z,3.10
2023-02-27T03:25:27.333Z,3.25
2023-02-27T03:28:01.789Z,3.95
2023-02-27T03:30:37.714Z,3.38
2023-02-27T03:33:26.935Z,2.97
2023-02-27T03:36:19.224Z,4.03
2023-02-27T03:38:58.024Z,5.00
2023-02-27T03:41:33.064Z,3.40
2023-02-27T03:44:33.473Z,3.53
2023-02-27T03:47:00.904Z,4.77
2023-02-27T03:49:28.768Z,3.78
2023-02-27T03:51:56.027Z,4.97
2023-02-27T03:54:37.627Z,5.78
2023-02-27T03:57:07.552Z,4.75
2023-02-27T03:59:37.790Z,4.45
2023-02-27T04:02:05.189Z,4.03
2023-02-27T04:04:34.185Z,3.72
2023-02-27T04:07:36.195Z,4.03
2023-02-27T04:10:09.625Z,4.45
2023-02-27T04:13:17.163Z,5.30
2023-02-27T04:16:03.038Z,4.20
2023-02-27T04:19:08.550Z,3.47
2023-02-27T04:22:02.665Z,7.73
2023-02-27T04:24:48.502Z,3.88
2023-02-27T04:27:52.904Z,5.00
2023-02-27T04:30:34.854Z,6.03
2023-02-27T04:33:19.468Z,6.50
2023-02-27T04:36:13.039Z,4.82
2023-02-27T04:38:48.509Z,6.15
2023-02-27T04:41:22.590Z,6.03
2023-02-27T04:43:52.189Z,4.90
2023-02-27T04:46:24.912Z,5.88
2023-02-27T04:48:58.553Z,7.88
2023-02-27T04:51:32.369Z,7.35
2023-02-27T04:54:06.764Z,8.30
2023-02-27T04:56:38.674Z,8.93
2023-02-27T04:59:15.471Z,10.20
2023-02-27T05:01:53.293Z,8.93
2023-02-27T05:04:23.244Z,11.35
2023-02-27T05:06:54.628Z,13.80
2023-02-27T05:09:33.004Z,8.82
2023-02-27T05:12:00.200Z,14.82
2023-02-27T05:14:42.915Z,12.55
2023-02-27T05:17:16.197Z,10.85
2023-02-27T05:19:45.251Z,11.85
2023-02-27T05:22:33.568Z,12.25
2023-02-27T05:25:50.534Z,12.38
2023-02-27T05:28:30.764Z,16.00
2023-02-27T05:31:23.959Z,13.23
2023-02-27T05:34:37.734Z,13.60
2023-02-27T05:37:22.680Z,11.43
2023-02-27T05:39:52.201Z,10.30
2023-02-27T05:42:31.227Z,12.00
2023-02-27T05:45:10.112Z,8.32
2023-02-27T05:47:44.923Z,9.02
2023-02-27T05:50:23.637Z,8.65
2023-02-27T05:52:53.559Z,9.93
2023-02-27T05:55:42.280Z,12.85
2023-02-27T05:58:19.562Z,9.93
2023-02-27T06:00:52.043Z,8.48
2023-02-27T06:07:31.884Z,7.87
2023-02-27T06:09:59.450Z,11.10
2023-02-27T06:12:26.442Z,6.78
2023-02-27T06:14:53.642Z,10.43
2023-02-27T06:17:20.760Z,9.73
2023-02-27T06:19:47.874Z,8.73
2023-02-27T06:22:15.000Z,6.95
2023-02-27T06:24:42.218Z,5.85
2023-02-27T06:27:09.561Z,7.63
2023-02-27T06:29:36.763Z,6.18
2023-02-27T06:32:03.911Z,9.38
2023-02-27T06:34:30.999Z,8.23
2023-02-27T06:36:58.045Z,7.10
2023-02-27T06:39:25.138Z,6.72
2023-02-27T06:41:52.433Z,9.63
2023-02-27T06:44:20.196Z,7.25
2023-02-27T06:46:47.477Z,9.35
2023-02-27T06:49:14.592Z,14.40
2023-02-27T06:51:43.195Z,11.90
2023-02-27T06:54:11.471Z,13.02
2023-02-27T06:56:38.512Z,15.98
2023-02-27T06:59:05.574Z,14.35
2023-02-27T07:01:34.947Z,16.23
2023-02-27T07:04:02.115Z,12.57
2023-02-27T07:07:33.840Z,13.13
2023-02-27T07:09:16.360Z,16.35
2023-02-27T07:11:43.392Z,10.73
2023-02-27T07:14:10.513Z,11.88
2023-02-27T07:16:37.793Z,10.13
2023-02-27T07:19:04.912Z,10.05
2023-02-27T07:21:32.034Z,9.10
2023-02-27T07:23:59.074Z,8.55
2023-02-27T07:26:26.292Z,9.05
2023-02-27T07:28:53.552Z,10.88
2023-02-27T07:31:21.553Z,11.98
2023-02-27T07:33:48.926Z,9.35
2023-02-27T07:36:15.952Z,10.35
2023-02-27T07:38:42.998Z,6.85
2023-02-27T07:41:21.253Z,9.50
2023-02-27T07:43:59.565Z,10.68
2023-02-27T07:46:27.939Z,10.15
2023-02-27T07:52:25.831Z,9.93
2023-02-27T07:54:52.600Z,8.07
2023-02-27T07:57:19.301Z,8.55
2023-02-27T07:59:45.904Z,10.00
2023-02-27T08:02:12.893Z,9.18
2023-02-27T08:04:39.591Z,7.85
2023-02-27T08:07:06.276Z,6.53
2023-02-27T08:09:32.931Z,8.73
2023-02-27T08:11:59.633Z,10.45
2023-02-27T08:14:26.253Z,9.02
2023-02-27T08:16:52.849Z,9.20
2023-02-27T08:19:19.451Z,6.47
2023-02-27T08:21:46.099Z,9.95
2023-02-27T08:24:12.735Z,9.38
2023-02-27T08:26:39.299Z,6.88
2023-02-27T08:29:05.893Z,9.10
2023-02-27T08:31:32.662Z,10.75
2023-02-27T08:34:09.381Z,7.20
2023-02-27T08:36:36.675Z,8.73
2023-02-27T08:39:03.406Z,5.82
2023-02-27T08:41:30.025Z,7.15
2023-02-27T08:43:56.613Z,6.15
2023-02-27T08:46:23.197Z,7.00
2023-02-27T08:48:49.768Z,5.63
2023-02-27T08:51:16.502Z,9.52
2023-02-27T08:53:43.132Z,5.35
2023-02-27T08:56:10.070Z,7.55
2023-02-27T08:58:36.718Z,7.47
2023-02-27T09:01:03.913Z,8.50
2023-02-27T09:03:31.348Z,9.13
2023-02-27T09:05:58.365Z,5.50
2023-02-27T09:08:25.118Z,4.32
2023-02-27T09:10:51.720Z,3.97
2023-02-27T09:13:18.398Z,3.42
2023-02-27T09:15:47.868Z,7.75
2023-02-27T09:18:14.486Z,4.93
2023-02-27T09:20:41.558Z,5.45
2023-02-27T09:23:09.791Z,4.18
2023-02-27T09:25:36.651Z,6.05
2023-02-27T09:28:03.496Z,4.57
2023-02-27T09:30:30.225Z,4.22
2023-02-27T09:32:56.845Z,4.15
2023-02-27T09:35:23.690Z,4.65
2023-02-27T09:37:50.340Z,5.90
2023-02-27T09:40:26.151Z,5.10
2023-02-27T09:42:58.122Z,4.68
2023-02-27T09:45:30.427Z,7.85
2023-02-27T09:48:17.749Z,4.97
2023-02-27T09:50:48.021Z,2.47
2023-02-27T09:53:40.124Z,4.82
2023-02-27T09:56:20.207Z,6.10
2023-02-27T09:58:55.683Z,4.68
2023-02-27T10:01:33.128Z,6.75
2023-02-27T10:04:27.601Z,7.80
2023-02-27T10:07:39.100Z,5.68
2023-02-27T10:10:27.418Z,6.57
2023-02-27T10:13:06.501Z,5.53
2023-02-27T10:15:46.369Z,8.48
2023-02-27T10:18:36.359Z,6.65
2023-02-27T10:21:08.210Z,9.60
2023-02-27T10:23:53.313Z,7.28
2023-02-27T10:26:33.500Z,3.97
2023-02-27T10:29:12.177Z,5.15
2023-02-27T10:31:39.091Z,6.10
2023-02-27T10:34:06.072Z,5.38
2023-02-27T10:36:34.860Z,7.10
2023-02-27T10:39:07.413Z,5.18
2023-02-27T10:41:36.232Z,6.25
2023-02-27T10:44:03.121Z,5.95
2023-02-27T10:46:32.196Z,6.18
2023-02-27T10:49:01.801Z,7.53
2023-02-27T10:51:31.638Z,5.68
2023-02-27T10:54:18.499Z,4.15
2023-02-27T10:56:49.051Z,5.00
2023-02-27T10:59:25.228Z,4.85
2023-02-27T11:01:57.168Z,4.25
2023-02-27T11:04:28.604Z,5.20
2023-02-27T11:06:56.627Z,5.82
2023-02-27T11:09:29.047Z,5.28
2023-02-27T11:12:09.589Z,6.82
2023-02-27T11:14:47.268Z,5.15
2023-02-27T11:17:22.532Z,7.45
2023-02-27T11:22:41.696Z,5.03
2023-02-27T11:25:23.091Z,5.63
2023-02-27T11:27:52.129Z,4.85
2023-02-27T11:30:27.258Z,6.35
2023-02-27T11:32:57.379Z,8.57
2023-02-27T11:35:29.298Z,5.32
2023-02-27T11:38:00.137Z,5.88
2023-02-27T11:40:50.278Z,5.30
2023-02-27T11:43:21.128Z,7.18
2023-02-27T11:46:18.999Z,8.02
2023-02-27T11:49:06.722Z,6.85
2023-02-27T11:51:43.714Z,8.02
2023-02-27T11:54:37.103Z,6.05
2023-02-27T11:57:14.464Z,6.18
2023-02-27T11:59:50.992Z,4.22
2023-02-27T12:02:30.204Z,4.22
2023-02-27T12:05:06.790Z,4.47
2023-02-27T12:07:44.042Z,4.05
2023-02-27T12:10:27.047Z,6.40
2023-02-27T12:13:15.643Z,4.65
2023-02-27T12:15:55.839Z,3.95
2023-02-27T12:18:30.528Z,4.50
2023-02-27T12:21:07.286Z,6.78
2023-02-27T12:23:48.103Z,5.65
2023-02-27T12:26:30.007Z,4.57
2023-02-27T12:29:17.872Z,11.75
2023-02-27T12:32:12.925Z,3.78
2023-02-27T12:34:49.098Z,4.07
2023-02-27T12:37:24.947Z,5.65
2023-02-27T12:39:54.583Z,3.80
2023-02-27T12:43:25.745Z,6.68
2023-02-27T12:46:22.559Z,3.58
2023-02-27T12:48:56.504Z,8.65
2023-02-27T12:51:41.833Z,4.75
2023-02-27T12:54:31.629Z,6.18
2023-02-27T12:57:31.216Z,6.22
2023-02-27T13:00:22.449Z,4.35
2023-02-27T13:03:24.509Z,6.55
2023-02-27T13:06:10.035Z,6.13
2023-02-27T13:08:49.040Z,4.55
2023-02-27T13:11:54.861Z,3.78
2023-02-27T13:14:43.023Z,7.53
2023-02-27T13:17:29.750Z,5.88
2023-02-27T13:19:59.438Z,7.80
2023-02-27T13:22:54.097Z,7.38
2023-02-27T13:25:22.271Z,6.20
2023-02-27T13:27:53.501Z,4.30
2023-02-27T13:30:22.984Z,5.90
2023-02-27T13:33:01.514Z,4.50
2023-02-27T13:35:38.033Z,4.57
2023-02-27T13:38:33.515Z,3.78
2023-02-27T13:41:24.979Z,4.10
2023-02-27T13:43:53.614Z,4.78
2023-02-27T13:46:27.370Z,4.35
2023-02-27T13:48:55.401Z,7.28
2023-02-27T13:51:43.090Z,4.32
2023-02-27T13:54:16.023Z,3.67
2023-02-27T13:56:54.809Z,5.22
2023-02-27T13:59:30.366Z,3.03
2023-02-27T14:02:11.673Z,3.92
2023-02-27T14:04:47.134Z,4.97
2023-02-27T14:07:21.449Z,5.47
2023-02-27T14:09:51.904Z,4.97
2023-02-27T14:12:45.573Z,5.03
2023-02-27T14:15:21.984Z,5.72
2023-02-27T14:17:59.638Z,4.45
2023-02-27T14:20:39.702Z,4.45
2023-02-27T14:23:27.911Z,2.00
2023-02-27T14:26:05.117Z,2.78
2023-02-27T14:28:42.603Z,3.60
2023-02-27T14:31:30.228Z,3.30
2023-02-27T14:34:04.996Z,3.63
2023-02-27T14:36:43.784Z,5.80
2023-02-27T14:39:27.903Z,5.50
2023-02-27T14:42:21.862Z,6.95
2023-02-27T14:44:51.391Z,3.78
2023-02-27T14:47:24.065Z,4.32
2023-02-27T14:49:50.836Z,5.97
2023-02-27T14:52:23.757Z,5.25
2023-02-27T14:57:21.267Z,4.95
2023-02-27T14:59:50.662Z,5.47
2023-02-27T15:02:27.481Z,4.07
2023-02-27T15:05:13.672Z,4.63
2023-02-27T15:07:40.789Z,3.25
2023-02-27T15:10:17.050Z,5.22
2023-02-27T15:12:43.712Z,2.97
2023-02-27T15:15:17.977Z,4.93
2023-02-27T15:17:46.186Z,6.35
2023-02-27T15:20:36.357Z,3.65
2023-02-27T15:23:22.887Z,6.60
2023-02-27T15:25:49.702Z,3.85
2023-02-27T15:28:21.862Z,4.80
2023-02-27T15:30:53.508Z,7.70
2023-02-27T15:33:27.761Z,3.58
2023-02-27T15:35:54.873Z,3.80
2023-02-27T15:38:30.531Z,4.35
2023-02-27T15:40:58.655Z,3.50
2023-02-27T15:43:26.908Z,8.25
2023-02-27T15:45:54.255Z,4.15
2023-02-27T15:48:21.832Z,4.05
2023-02-27T15:50:59.116Z,7.60
2023-02-27T15:53:28.930Z,5.15
2023-02-27T15:56:01.485Z,5.40
2023-02-27T15:58:30.088Z,4.53
2023-02-27T16:01:03.224Z,3.42
2023-02-27T16:03:36.041Z,3.58
2023-02-27T16:06:03.534Z,4.75
2023-02-27T16:08:31.527Z,5.82
2023-02-27T16:10:58.207Z,3.90
2023-02-27T16:13:28.003Z,2.95
2023-02-27T16:16:18.555Z,4.72
2023-02-27T16:18:49.349Z,4.65
2023-02-27T16:21:18.972Z,3.85
2023-02-27T16:23:46.936Z,4.20
2023-02-27T16:26:38.496Z,3.95
2023-02-27T16:29:18.087Z,4.57
2023-02-27T16:31:53.091Z,6.28
2023-02-27T16:34:28.046Z,3.97
2023-02-27T16:37:04.441Z,4.68
2023-02-27T16:39:32.257Z,5.78
2023-02-27T16:42:00.587Z,4.22
2023-02-27T16:44:29.385Z,3.85
2023-02-27T16:46:58.548Z,3.15
2023-02-27T16:49:28.006Z,4.15
2023-02-27T16:51:55.232Z,5.20
2023-02-27T16:54:22.837Z,4.20
2023-02-27T16:56:50.719Z,3.30
2023-02-27T16:59:27.115Z,5.50
2023-02-27T17:01:53.829Z,7.00
2023-02-27T17:04:25.956Z,4.13
2023-02-27T17:06:54.504Z,4.35
2023-02-27T17:09:21.247Z,6.82
2023-02-27T17:11:49.078Z,7.05
2023-02-27T17:14:16.139Z,7.18
2023-02-27T17:16:42.817Z,6.32
2023-02-27T17:19:09.472Z,7.18
2023-02-27T17:21:36.151Z,5.25
2023-02-27T17:24:02.994Z,5.03
2023-02-27T17:26:31.097Z,4.65
2023-02-27T17:28:58.575Z,3.40
2023-02-27T17:31:25.726Z,6.20
2023-02-27T17:33:55.953Z,5.07
2023-02-27T17:36:23.285Z,4.78
2023-02-27T17:38:57.844Z,4.07
2023-02-27T17:41:24.913Z,3.80
2023-02-27T17:43:53.845Z,5.68
2023-02-27T17:46:21.037Z,3.53
2023-02-27T17:48:47.715Z,7.22
2023-02-27T17:51:16.149Z,6.95
2023-02-27T17:53:43.568Z,4.72
2023-02-27T17:56:12.185Z,5.88
2023-02-27T17:58:38.894Z,4.07
2023-02-27T18:01:20.164Z,7.30
2023-02-27T18:03:47.551Z,6.05
2023-02-27T18:06:14.703Z,4.47
2023-02-27T18:08:41.543Z,4.07
2023-02-27T18:11:13.448Z,5.28
2023-02-27T18:13:41.271Z,4.60
2023-02-27T18:16:09.360Z,4.13
2023-02-27T18:18:39.795Z,4.68
2023-02-27T18:21:10.301Z,4.50
2023-02-27T18:23:37.875Z,4.07
2023-02-27T18:26:05.021Z,3.50
2023-02-27T18:28:32.150Z,7.80
2023-02-27T18:30:59.030Z,4.82
2023-02-27T18:33:27.455Z,5.15
2023-02-27T18:35:54.973Z,4.22
2023-02-27T18:38:22.163Z,5.20
2023-02-27T18:40:49.249Z,5.40
2023-02-27T18:43:16.085Z,4.32
2023-02-27T18:45:44.579Z,3.83
2023-02-27T18:48:11.687Z,5.47
2023-02-27T18:50:38.434Z,4.10
2023-02-27T18:53:05.736Z,3.50
2023-02-27T18:55:32.334Z,4.15
2023-02-27T18:57:59.644Z,3.97
2023-02-27T19:00:26.795Z,4.95
2023-02-27T19:02:53.871Z,5.38
2023-02-27T19:05:20.705Z,5.45
2023-02-27T19:07:48.236Z,3.53
2023-02-27T19:10:15.127Z,5.43
2023-02-27T19:12:42.787Z,4.38
2023-02-27T19:15:10.822Z,5.70
2023-02-27T19:17:38.156Z,3.97
2023-02-27T19:20:06.908Z,3.83
2023-02-27T19:22:33.848Z,5.05
2023-02-27T19:25:00.478Z,5.18
2023-02-27T19:27:27.169Z,4.65
2023-02-27T19:29:56.465Z,3.28
2023-02-27T19:32:23.347Z,3.28
2023-02-27T19:34:49.959Z,3.72
2023-02-27T19:37:16.923Z,4.20
2023-02-27T19:39:44.088Z,5.47
2023-02-27T19:42:11.297Z,5.38
2023-02-27T19:44:39.745Z,4.05
2023-02-27T19:47:06.727Z,4.65
2023-02-27T19:49:33.412Z,4.05
2023-02-27T19:52:00.157Z,3.78
2023-02-27T19:54:26.803Z,4.75
2023-02-27T19:56:54.370Z,3.60
2023-02-27T19:59:23.758Z,4.38
2023-02-27T20:01:50.952Z,5.00
2023-02-27T20:04:17.916Z,3.97
2023-02-27T20:06:46.603Z,5.07
2023-02-27T20:09:15.697Z,7.13
2023-02-27T20:11:43.581Z,6.53
2023-02-27T20:14:11.138Z,5.35
2023-02-27T20:16:38.123Z,4.35
2023-02-27T20:19:06.146Z,6.05
2023-02-27T20:21:34.198Z,5.05
2023-02-27T20:24:01.680Z,4.15
2023-02-27T20:26:43.305Z,4.28
2023-02-27T20:29:16.048Z,6.13
2023-02-27T20:31:46.185Z,6.85
2023-02-27T20:34:15.812Z,4.15
2023-02-27T20:36:43.753Z,5.30
2023-02-27T20:39:11.905Z,6.20
2023-02-27T20:41:40.208Z,5.15
2023-02-27T20:44:08.610Z,4.25
2023-02-27T20:46:35.910Z,6.32
2023-02-27T20:49:04.929Z,7.95
2023-02-27T20:51:37.619Z,6.30
2023-02-27T20:54:07.841Z,5.85
2023-02-27T20:56:38.233Z,4.95
2023-02-27T20:59:08.147Z,5.18
2023-02-27T21:01:37.965Z,5.60
2023-02-27T21:04:05.268Z,3.67
2023-02-27T21:06:32.550Z,4.28
2023-02-27T21:09:04.530Z,5.25
2023-02-27T21:11:32.350Z,6.03
2023-02-27T21:14:04.302Z,6.38
2023-02-27T21:16:31.983Z,5.75
2023-02-27T21:18:58.651Z,5.20
2023-02-27T21:21:29.982Z,6.60
2023-02-27T21:23:58.264Z,5.53
2023-02-27T21:26:29.069Z,5.28
2023-02-27T21:29:01.896Z,4.75
2023-02-27T21:31:32.861Z,4.97
2023-02-27T21:34:01.607Z,6.47
2023-02-27T21:36:31.678Z,4.90
2023-02-27T21:39:04.624Z,6.35
2023-02-27T21:41:32.236Z,4.13
2023-02-27T21:44:00.433Z,5.18
2023-02-27T21:46:27.727Z,4.57
2023-02-27T21:48:54.884Z,6.60
2023-02-27T21:51:38.315Z,6.40
2023-02-27T21:54:06.090Z,6.53
2023-02-27T21:56:33.487Z,5.80
2023-02-27T21:59:01.961Z,4.53
2023-02-27T22:01:29.973Z,5.05
2023-02-27T22:03:57.374Z,5.00
2023-02-27T22:06:26.804Z,3.45
2023-02-27T22:08:57.853Z,4.68
2023-02-27T22:11:27.572Z,4.78
2023-02-27T22:13:55.002Z,3.88
2023-02-27T22:16:22.012Z,4.88
2023-02-27T22:18:49.471Z,5.97
2023-02-27T22:21:20.196Z,4.00
2023-02-27T22:23:47.636Z,4.53
2023-02-27T22:26:17.220Z,4.80
2023-02-27T22:28:44.016Z,6.40
2023-02-27T22:31:31.707Z,4.60
2023-02-27T22:34:12.304Z,7.90
2023-02-27T22:36:41.180Z,5.40
2023-02-27T22:39:08.683Z,6.13
2023-02-27T22:41:38.443Z,6.78
2023-02-27T22:44:06.620Z,6.35
2023-02-27T22:46:36.188Z,6.43
2023-02-27T22:49:09.848Z,6.03
2023-02-27T22:51:36.679Z,7.78
2023-02-27T22:54:04.831Z,6.38
2023-02-27T22:56:32.760Z,7.60
2023-02-27T22:59:00.039Z,6.72
2023-02-27T23:01:32.326Z,6.72
2023-02-27T23:04:02.987Z,5.27
2023-02-27T23:06:32.507Z,6.20
2023-02-27T23:09:00.743Z,6.90
2023-02-27T23:11:27.621Z,6.00
2023-02-27T23:13:54.886Z,5.32
2023-02-27T23:16:22.629Z,7.38
2023-02-27T23:18:54.702Z,6.70
2023-02-27T23:21:25.264Z,6.45
2023-02-27T23:23:59.173Z,7.43
2023-02-27T23:26:29.541Z,4.93
2023-02-27T23:28:57.174Z,6.30
2023-02-27T23:31:25.149Z,5.30
2023-02-27T23:33:52.804Z,5.43
2023-02-27T23:36:20.219Z,6.90
2023-02-27T23:38:47.823Z,5.65
2023-02-27T23:41:17.691Z,5.15
2023-02-27T23:43:45.121Z,4.90
2023-02-27T23:46:16.241Z,4.25
2023-02-27T23:48:43.584Z,7.05
2023-02-27T23:51:12.708Z,6.65
2023-02-27T23:53:42.381Z,6.05
2023-02-27T23:56:25.757Z,5.15
2023-02-27T23:58:58.865Z,5.15
